Time;durP1;ratioP1;P1;durP2;ratioP2;P2;SDS_P1;SDS_P2;PMS_P1;PMS_P2;Temp;Humidity;BMP_temperature;BMP_pressure;BME280_temperature;BME280_humidity;BME280_pressure;Samples;Min_cycle;Max_cycle;Signal;HPM_P1;HPM_P2
2024/02/14 00:01:38;;;;;;;32.90;17.30;;;;;;;3.25;83.11;101586.45;105314;1256;62073;-58
2024/02/14 00:04:07;;;;;;;34.30;19.30;;;;;;;3.20;83.24;101589.13;108764;1256;139180;-60
2024/02/14 00:06:37;;;;;;;37.80;19.50;;;;;;;3.16;83.30;101591.73;105060;1256;65987;-64
2024/02/14 00:09:04;;;;;;;45.10;27.80;;;;;;;3.09;83.31;101592.84;104690;1256;138721;-62
2024/02/14 00:11:31;;;;;;;26.10;15.80;;;;;;;3.04;83.39;101593.00;104518;1257;61880;-59
2024/02/14 00:14:00;;;;;;;19.00;11.60;;;;;;;2.99;83.35;101597.51;104764;1256;62173;-59
2024/02/14 00:16:30;;;;;;;20.20;11.40;;;;;;;2.93;83.44;101597.98;105163;1256;139239;-59
2024/02/14 00:18:57;;;;;;;20.90;11.40;;;;;;;2.87;83.43;101594.79;105506;1260;65655;-59
2024/02/14 00:21:24;;;;;;;24.00;11.40;;;;;;;2.80;83.54;101599.00;104431;1256;138834;-60
2024/02/14 00:23:51;;;;;;;23.10;11.10;;;;;;;2.75;83.53;101600.76;104534;1259;61977;-64
2024/02/14 00:26:18;;;;;;;19.90;10.90;;;;;;;2.74;83.79;101605.20;104403;1259;138988;-63
2024/02/14 00:28:44;;;;;;;16.40;11.00;;;;;;;2.77;83.94;101603.45;104637;1256;75677;-63
2024/02/14 00:31:11;;;;;;;20.70;11.20;;;;;;;2.83;84.30;101602.14;104901;1259;66387;-64
2024/02/14 00:33:38;;;;;;;16.40;9.50;;;;;;;2.89;84.39;101599.83;104685;1256;139006;-66
2024/02/14 00:36:05;;;;;;;18.50;10.30;;;;;;;2.97;84.53;101606.59;104597;1259;62356;-63
2024/02/14 00:38:32;;;;;;;15.00;9.30;;;;;;;3.04;84.52;101607.80;108020;1256;139997;-63
2024/02/14 00:40:59;;;;;;;20.90;10.10;;;;;;;3.11;84.63;101607.05;104519;1259;73882;-63
2024/02/14 00:43:25;;;;;;;20.00;10.40;;;;;;;3.14;84.56;101604.30;104469;1257;67186;-66
2024/02/14 00:45:52;;;;;;;18.00;9.20;;;;;;;3.13;84.37;101609.10;104475;1256;139420;-65
2024/02/14 00:48:19;;;;;;;16.30;9.30;;;;;;;3.09;84.19;101612.48;104441;1259;62171;-64
2024/02/14 00:50:46;;;;;;;19.80;10.00;;;;;;;3.02;83.93;101614.09;104397;1254;139448;-64
2024/02/14 00:53:13;;;;;;;18.70;10.30;;;;;;;2.93;83.77;101611.53;104470;1259;75792;-64
2024/02/14 00:55:40;;;;;;;13.60;9.20;;;;;;;2.84;83.69;101611.39;104881;1259;68026;-65
2024/02/14 00:58:07;;;;;;;18.10;9.50;;;;;;;2.74;83.71;101614.92;104940;1254;139368;-64
2024/02/14 01:00:33;;;;;;;18.40;9.50;;;;;;;2.64;83.67;101610.76;105157;1258;62053;-65
2024/02/14 01:03:00;;;;;;;20.60;10.70;;;;;;;2.55;83.68;101606.80;104479;1259;139509;-65
2024/02/14 01:05:27;;;;;;;18.70;9.30;;;;;;;2.46;83.80;101607.73;106056;1254;74267;-59
2024/02/14 01:07:55;;;;;;;18.10;9.90;;;;;;;2.36;83.78;101606.17;104668;1259;65459;-65
2024/02/14 01:10:21;;;;;;;21.00;10.00;;;;;;;2.29;83.87;101607.36;104504;1256;138833;-66
2024/02/14 01:12:48;;;;;;;13.90;8.40;;;;;;;2.21;83.96;101611.33;105236;1254;62145;-65
2024/02/14 01:15:15;;;;;;;17.30;8.70;;;;;;;2.14;84.12;101606.31;105063;1254;138080;-66
2024/02/14 01:17:42;;;;;;;19.10;10.30;;;;;;;2.09;84.23;101606.77;104620;1257;75681;-60
2024/02/14 01:20:10;;;;;;;18.60;10.20;;;;;;;2.03;84.33;101607.91;106970;1254;66639;-57
2024/02/14 01:22:36;;;;;;;16.10;8.80;;;;;;;1.99;84.43;101607.41;104907;1258;139041;-63
2024/02/14 01:25:04;;;;;;;16.30;9.60;;;;;;;1.93;84.41;101611.55;104553;1258;62105;-65
2024/02/14 01:27:31;;;;;;;17.80;9.10;;;;;;;1.88;84.51;101615.16;105635;1256;139357;-64
2024/02/14 01:29:58;;;;;;;15.20;8.90;;;;;;;1.84;84.66;101610.63;105012;1257;74869;-65
2024/02/14 01:32:26;;;;;;;17.90;9.90;;;;;;;1.81;84.68;101614.25;104409;1254;139745;-65
2024/02/14 01:34:52;;;;;;;14.00;9.30;;;;;;;1.78;84.84;101611.96;104550;1254;73349;-63
2024/02/14 01:37:20;;;;;;;15.10;9.10;;;;;;;1.74;84.75;101611.36;104453;1254;62362;-60
2024/02/14 01:39:47;;;;;;;22.40;9.80;;;;;;;1.71;84.95;101611.25;104486;1256;138998;-57
2024/02/14 01:42:14;;;;;;;19.80;10.30;;;;;;;1.67;84.99;101607.71;104891;1257;76025;-58
2024/02/14 01:44:41;;;;;;;19.60;9.70;;;;;;;1.62;84.81;101606.82;104846;1259;138894;-65
2024/02/14 01:47:09;;;;;;;17.40;10.00;;;;;;;1.58;84.70;101607.53;105031;1256;71959;-65
2024/02/14 01:49:36;;;;;;;14.10;8.60;;;;;;;1.53;84.93;101611.32;105032;1256;62091;-63
2024/02/14 01:52:03;;;;;;;17.10;9.50;;;;;;;1.51;84.95;101615.02;104144;1260;140050;-64
2024/02/14 01:54:30;;;;;;;19.70;10.10;;;;;;;1.48;84.91;101615.11;107757;1257;76432;-59
2024/02/14 01:56:58;;;;;;;16.20;9.20;;;;;;;1.44;85.11;101616.74;104364;1256;139202;-60
2024/02/14 01:59:25;;;;;;;13.50;9.00;;;;;;;1.41;84.97;101618.84;104773;1257;73664;-59
2024/02/14 02:01:52;;;;;;;16.40;9.80;;;;;;;1.35;84.87;101616.56;105051;1254;62217;-59
2024/02/14 02:04:20;;;;;;;13.90;9.40;;;;;;;1.31;84.97;101618.29;104680;1257;139122;-64
2024/02/14 02:06:47;;;;;;;17.40;9.60;;;;;;;1.27;84.93;101619.06;104766;1257;76423;-64
2024/02/14 02:09:14;;;;;;;19.60;10.50;;;;;;;1.25;84.99;101614.57;104496;1256;140441;-65
2024/02/14 02:11:53;;;;;;;19.00;9.80;;;;;;;1.23;85.04;101612.33;104495;1254;73467;-63
2024/02/14 02:14:21;;;;;;;16.70;9.80;;;;;;;1.21;85.27;101619.42;105795;1259;139324;-62
2024/02/14 02:16:49;;;;;;;18.70;10.30;;;;;;;1.20;85.41;101625.56;104879;1254;62049;-65
2024/02/14 02:19:16;;;;;;;16.70;9.40;;;;;;;1.19;85.27;101629.10;104782;1259;75786;-64
2024/02/14 02:21:45;;;;;;;19.10;10.20;;;;;;;1.16;85.30;101632.77;106049;1256;139656;-64
2024/02/14 02:24:13;;;;;;;20.90;10.20;;;;;;;1.17;85.56;101632.10;104940;1254;73045;-65
2024/02/14 02:26:40;;;;;;;17.90;9.80;;;;;;;1.21;85.65;101626.69;104799;1258;139104;-64
2024/02/14 02:29:06;;;;;;;20.10;9.90;;;;;;;1.24;85.78;101619.84;104988;1258;62066;-65
2024/02/14 02:31:33;;;;;;;14.50;10.00;;;;;;;1.27;85.99;101616.98;104988;1256;76360;-65
2024/02/14 02:34:00;;;;;;;17.60;9.70;;;;;;;1.28;85.93;101616.91;104731;1258;139333;-65
2024/02/14 02:36:29;;;;;;;18.50;9.80;;;;;;;1.29;85.89;101618.48;104614;1255;72089;-64
2024/02/14 02:39:00;;;;;;;17.80;10.30;;;;;;;1.28;85.94;101624.83;105013;1256;139425;-64
2024/02/14 02:41:27;;;;;;;17.70;9.60;;;;;;;1.29;85.99;101624.89;104605;1259;62074;-58
2024/02/14 02:43:54;;;;;;;15.30;9.70;;;;;;;1.31;85.86;101624.70;104633;1259;76474;-64
2024/02/14 02:46:22;;;;;;;16.10;10.10;;;;;;;1.34;86.16;101623.91;104540;1259;139426;-64
2024/02/14 02:48:49;;;;;;;17.10;9.80;;;;;;;1.38;86.31;101628.34;104958;1254;74723;-64
2024/02/14 02:51:17;;;;;;;24.00;10.50;;;;;;;1.44;86.27;101631.40;104839;1256;139327;-64
2024/02/14 02:53:44;;;;;;;16.20;10.40;;;;;;;1.49;86.29;101633.52;106296;1258;61939;-64
2024/02/14 02:56:12;;;;;;;18.50;10.00;;;;;;;1.52;86.11;101637.55;105022;1256;76102;-64
2024/02/14 02:58:38;;;;;;;18.20;11.00;;;;;;;1.53;86.18;101641.76;105151;1254;139013;-64
2024/02/14 03:01:09;;;;;;;20.10;11.70;;;;;;;1.56;86.12;101642.67;104974;1256;72000;-64
2024/02/14 03:03:38;;;;;;;12.00;8.60;;;;;;;1.62;86.35;101639.13;105181;1254;138865;-65
2024/02/14 03:06:05;;;;;;;16.90;9.90;;;;;;;1.69;86.44;101635.90;106001;1254;61990;-65
2024/02/14 03:08:34;;;;;;;19.10;10.70;;;;;;;1.79;86.59;101635.92;104190;1257;184451;-64
2024/02/14 03:11:05;;;;;;;21.90;10.40;;;;;;;1.87;86.54;101638.94;105509;1254;67196;-65
2024/02/14 03:13:33;;;;;;;18.50;10.60;;;;;;;1.96;86.67;101635.27;105332;1259;71247;-64
2024/02/14 03:16:00;;;;;;;17.10;10.70;;;;;;;2.03;86.49;101633.72;104409;1262;138924;-59
2024/02/14 03:18:27;;;;;;;18.20;11.00;;;;;;;2.07;86.56;101627.77;104667;1259;61989;-59
2024/02/14 03:20:53;;;;;;;16.50;10.30;;;;;;;2.13;86.41;101626.83;104798;1262;139132;-59
2024/02/14 03:23:20;;;;;;;20.00;10.60;;;;;;;2.16;86.55;101633.27;105055;1259;66425;-59
2024/02/14 03:25:48;;;;;;;17.40;10.40;;;;;;;2.20;86.32;101638.77;105024;1256;73894;-59
2024/02/14 03:28:14;;;;;;;18.60;10.50;;;;;;;2.23;86.27;101644.48;104937;1256;138981;-59
2024/02/14 03:30:41;;;;;;;17.20;10.40;;;;;;;2.19;85.95;101641.30;105060;1258;62328;-59
2024/02/14 03:33:08;;;;;;;20.10;10.90;;;;;;;2.15;85.74;101642.02;104963;1255;139736;-59
2024/02/14 03:35:35;;;;;;;18.20;12.10;;;;;;;2.09;85.66;101643.20;104777;1260;66791;-58
2024/02/14 03:38:02;;;;;;;18.80;11.30;;;;;;;2.03;85.71;101642.20;104506;1258;72252;-65
2024/02/14 03:40:30;;;;;;;17.10;10.50;;;;;;;1.98;85.47;101641.98;104302;1257;139130;-65
2024/02/14 03:42:56;;;;;;;14.30;9.70;;;;;;;1.91;85.64;101643.06;105670;1258;62193;-67
2024/02/14 03:45:23;;;;;;;17.10;10.70;;;;;;;1.87;85.55;101644.97;104475;1257;138888;-59
2024/02/14 03:47:50;;;;;;;21.30;11.00;;;;;;;1.83;85.42;101639.83;105034;1256;66545;-59
2024/02/14 03:50:17;;;;;;;16.40;10.40;;;;;;;1.81;85.56;101635.90;105149;1259;71458;-65
2024/02/14 03:52:44;;;;;;;16.40;10.70;;;;;;;1.83;85.77;101637.76;105148;1259;62700;-65
2024/02/14 03:55:13;;;;;;;16.20;10.30;;;;;;;1.85;86.00;101638.08;104873;1257;62132;-64
2024/02/14 03:57:40;;;;;;;15.60;9.90;;;;;;;1.86;85.96;101635.92;105922;1257;139229;-64
2024/02/14 04:00:10;;;;;;;16.40;10.40;;;;;;;1.89;86.05;101637.04;106343;1259;65608;-64
2024/02/14 04:02:36;;;;;;;17.20;10.80;;;;;;;1.94;86.16;101639.79;104875;1257;139539;-64
2024/02/14 04:05:03;;;;;;;18.50;10.50;;;;;;;2.01;86.37;101641.50;104958;1259;62088;-64
2024/02/14 04:07:30;;;;;;;20.00;10.80;;;;;;;2.08;86.53;101645.68;104745;1259;62061;-65
2024/02/14 04:09:57;;;;;;;23.10;11.80;;;;;;;2.11;86.49;101640.38;104347;1257;138776;-64
2024/02/14 04:12:24;;;;;;;18.60;12.20;;;;;;;2.14;86.47;101642.27;104489;1259;66420;-65
2024/02/14 04:14:51;;;;;;;20.90;12.20;;;;;;;2.18;86.38;101643.09;104341;1259;139161;-65
2024/02/14 04:17:17;;;;;;;22.40;12.40;;;;;;;2.20;86.45;101645.16;104979;1257;62056;-65
2024/02/14 04:19:44;;;;;;;20.00;11.20;;;;;;;2.25;86.44;101646.77;105015;1254;62080;-65
2024/02/14 04:22:10;;;;;;;19.80;11.20;;;;;;;2.30;86.41;101644.02;104977;1258;138930;-59
2024/02/14 04:24:37;;;;;;;20.00;11.70;;;;;;;2.37;86.52;101646.91;104936;1260;66687;-59
2024/02/14 04:27:04;;;;;;;17.20;10.40;;;;;;;2.44;86.56;101652.42;104927;1256;138780;-65
2024/02/14 04:29:32;;;;;;;20.00;12.20;;;;;;;2.50;86.64;101650.65;104893;1257;62095;-64
2024/02/14 04:31:59;;;;;;;30.10;17.20;;;;;;;2.54;86.40;101650.39;104902;1259;61971;-65
2024/02/14 04:34:26;;;;;;;27.10;15.70;;;;;;;2.56;86.36;101651.34;104514;1257;139452;-65
2024/02/14 04:36:53;;;;;;;22.80;16.20;;;;;;;2.59;86.32;101655.95;107577;1259;67297;-65
2024/02/14 04:39:20;;;;;;;35.70;19.90;;;;;;;2.61;86.39;101653.11;104417;1257;139156;-65
2024/02/14 04:41:47;;;;;;;58.00;34.20;;;;;;;2.65;86.40;101648.61;104483;1257;62168;-60
2024/02/14 04:44:13;;;;;;;50.20;34.50;;;;;;;2.70;86.34;101647.40;104968;1259;61977;-59
2024/02/14 04:46:44;;;;;;;29.00;18.50;;;;;;;2.74;86.40;101648.16;104464;1262;138803;-57
2024/02/14 04:49:11;;;;;;;24.50;18.50;;;;;;;2.75;86.30;101646.84;105848;1259;67214;-59
2024/02/14 04:51:38;;;;;;;24.40;16.20;;;;;;;2.74;86.12;101648.36;104326;1257;138738;-59
2024/02/14 04:54:05;;;;;;;25.30;18.60;;;;;;;2.72;86.23;101651.69;104555;1258;62117;-59
2024/02/14 04:56:32;;;;;;;31.00;20.40;;;;;;;2.73;86.23;101648.95;105062;1261;140336;-60
2024/02/14 04:58:59;;;;;;;27.60;17.30;;;;;;;2.72;86.06;101654.09;104998;1256;75720;-59
2024/02/14 05:01:26;;;;;;;30.50;22.30;;;;;;;2.71;86.20;101654.73;104675;1258;67269;-58
2024/02/14 05:03:53;;;;;;;27.30;16.50;;;;;;;2.73;86.12;101651.05;104408;1256;138712;-64
2024/02/14 05:06:20;;;;;;;27.10;17.60;;;;;;;2.75;86.23;101654.81;104465;1258;61975;-65
2024/02/14 05:08:47;;;;;;;24.60;17.40;;;;;;;2.77;86.22;101650.77;104490;1254;138994;-64
2024/02/14 05:11:14;;;;;;;26.20;19.60;;;;;;;2.77;86.18;101655.83;104806;1256;75298;-64
2024/02/14 05:13:41;;;;;;;35.60;24.80;;;;;;;2.78;86.25;101651.56;104928;1259;67448;-65
2024/02/14 05:16:10;;;;;;;23.10;16.60;;;;;;;2.83;86.43;101653.30;106104;1257;139204;-64
2024/02/14 05:18:38;;;;;;;44.80;31.80;;;;;;;2.88;86.43;101649.48;104736;1259;62193;-65
2024/02/14 05:21:07;;;;;;;46.40;29.30;;;;;;;2.93;86.34;101647.11;104335;1257;139131;-64
2024/02/14 05:23:35;;;;;;;42.70;29.20;;;;;;;2.97;86.37;101648.36;105486;1260;78083;-64
2024/02/14 05:26:02;;;;;;;44.50;28.20;;;;;;;2.99;86.20;101645.77;105686;1257;67569;-64
2024/02/14 05:28:29;;;;;;;35.20;22.60;;;;;;;3.04;86.27;101645.58;104909;1259;139455;-65
2024/02/14 05:30:57;;;;;;;40.10;25.20;;;;;;;3.07;86.20;101647.86;105794;1256;62300;-64
2024/02/14 05:33:23;;;;;;;34.00;21.40;;;;;;;3.08;86.19;101649.48;104854;1256;139154;-65
2024/02/14 05:35:51;;;;;;;37.20;26.90;;;;;;;3.09;86.09;101650.95;105025;1258;76198;-64
2024/02/14 05:38:21;;;;;;;32.70;20.00;;;;;;;3.09;85.99;101647.34;104676;1260;66915;-64
2024/02/14 05:40:48;;;;;;;26.20;17.00;;;;;;;3.10;85.88;101643.56;104729;1256;72974;-63
2024/02/14 05:43:17;;;;;;;25.50;17.90;;;;;;;3.09;85.90;101643.02;106497;1258;62188;-66
2024/02/14 05:45:44;;;;;;;27.20;17.60;;;;;;;3.11;85.97;101641.20;105065;1259;139319;-64
2024/02/14 05:48:10;;;;;;;39.00;22.70;;;;;;;3.14;86.08;101641.03;105158;1259;74126;-65
2024/02/14 05:50:37;;;;;;;25.60;16.80;;;;;;;3.16;85.96;101642.06;105109;1258;139001;-65
2024/02/14 05:53:04;;;;;;;24.70;16.40;;;;;;;3.16;85.89;101645.21;105153;1254;71813;-64
2024/02/14 05:55:31;;;;;;;99.40;52.00;;;;;;;3.18;85.92;101651.44;105198;1255;62166;-65
2024/02/14 05:57:59;;;;;;;86.80;44.70;;;;;;;3.20;85.84;101660.55;105111;1259;138892;-66
2024/02/14 06:00:26;;;;;;;77.10;38.60;;;;;;;3.21;85.82;101656.82;105088;1257;74614;-64
2024/02/14 06:02:53;;;;;;;42.20;23.40;;;;;;;3.23;85.80;101660.63;105068;1259;140034;-64
2024/02/14 06:05:20;;;;;;;35.80;23.10;;;;;;;3.24;85.68;101659.98;105169;1255;73983;-67
2024/02/14 06:07:47;;;;;;;46.60;24.90;;;;;;;3.27;85.84;101662.24;105131;1257;62537;-65
2024/02/14 06:10:14;;;;;;;46.20;25.70;;;;;;;3.29;85.66;101661.70;105031;1259;138760;-64
2024/02/14 06:12:43;;;;;;;44.80;23.90;;;;;;;3.28;85.62;101658.75;105140;1255;76427;-64
2024/02/14 06:15:09;;;;;;;39.20;21.90;;;;;;;3.28;85.52;101663.22;106340;1256;138190;-65
2024/02/14 06:17:36;;;;;;;34.60;21.40;;;;;;;3.27;85.47;101664.20;105225;1257;72654;-64
2024/02/14 06:20:07;;;;;;;29.50;18.50;;;;;;;3.29;85.65;101663.48;104903;1257;62179;-63
2024/02/14 06:22:33;;;;;;;30.20;18.10;;;;;;;3.29;85.36;101663.46;104866;1257;138803;-63
2024/02/14 06:25:00;;;;;;;32.40;18.80;;;;;;;3.30;85.49;101665.41;104959;1257;75761;-64
2024/02/14 06:27:28;;;;;;;31.80;19.00;;;;;;;3.30;85.47;101663.70;108121;1257;140054;-64
2024/02/14 06:29:55;;;;;;;29.30;17.50;;;;;;;3.30;85.43;101667.19;104992;1260;72966;-62
2024/02/14 06:32:22;;;;;;;29.80;17.80;;;;;;;3.29;85.14;101671.43;105012;1259;139267;-61
2024/02/14 06:34:48;;;;;;;32.50;20.80;;;;;;;3.28;85.29;101678.67;104965;1254;62509;-62
2024/02/14 06:37:15;;;;;;;27.80;18.40;;;;;;;3.30;85.42;101679.66;105103;1259;74789;-63
2024/02/14 06:39:42;;;;;;;33.20;19.70;;;;;;;3.37;85.56;101679.92;105518;1256;140007;-63
2024/02/14 06:42:09;;;;;;;36.20;22.10;;;;;;;3.42;85.55;101682.70;105137;1257;71501;-64
2024/02/14 06:44:36;;;;;;;32.20;22.40;;;;;;;3.44;85.21;101682.15;105036;1259;138917;-64
2024/02/14 06:47:04;;;;;;;36.70;22.50;;;;;;;3.42;85.16;101685.01;105166;1257;62153;-63
2024/02/14 06:49:30;;;;;;;32.60;23.10;;;;;;;3.44;85.15;101686.52;105144;1257;74060;-64
2024/02/14 06:51:57;;;;;;;42.20;23.80;;;;;;;3.45;85.12;101690.55;105072;1259;139631;-63
2024/02/14 06:54:24;;;;;;;38.90;22.20;;;;;;;3.50;85.14;101689.33;105278;1254;72572;-63
2024/02/14 06:56:50;;;;;;;37.40;23.30;;;;;;;3.57;85.19;101690.16;104935;1254;139780;-64
2024/02/14 06:59:17;;;;;;;33.70;22.20;;;;;;;3.63;85.12;101693.00;105191;1255;62165;-63
2024/02/14 07:01:44;;;;;;;33.30;22.40;;;;;;;3.67;85.09;101694.34;105153;1254;76308;-64
2024/02/14 07:04:12;;;;;;;31.40;21.00;;;;;;;3.71;85.13;101695.27;104948;1258;138938;-63
2024/02/14 07:06:39;;;;;;;32.40;21.90;;;;;;;3.75;85.03;101700.36;105437;1256;72610;-63
2024/02/14 07:09:09;;;;;;;35.00;21.40;;;;;;;3.78;85.13;101696.83;104701;1262;138597;-64
2024/02/14 07:11:38;;;;;;;36.40;22.00;;;;;;;3.84;85.08;101685.89;108962;1256;59826;-63
2024/02/14 07:14:05;;;;;;;33.80;20.60;;;;;;;3.89;85.00;101687.47;107432;1257;74766;-63
2024/02/14 07:16:31;;;;;;;27.40;19.20;;;;;;;3.98;84.96;101690.14;104789;1262;139618;-65
2024/02/14 07:18:58;;;;;;;31.60;19.90;;;;;;;4.08;85.13;101690.77;104824;1259;72030;-63
2024/02/14 07:21:26;;;;;;;29.90;18.50;;;;;;;4.21;85.15;101689.71;104838;1258;138697;-63
2024/02/14 07:23:53;;;;;;;31.70;20.70;;;;;;;4.33;85.14;101686.34;105189;1258;62096;-63
2024/02/14 07:26:20;;;;;;;32.50;19.50;;;;;;;4.42;85.00;101675.31;104912;1257;74758;-63
2024/02/14 07:28:47;;;;;;;29.50;19.40;;;;;;;4.54;84.91;101675.33;104802;1257;66260;-63
2024/02/14 07:31:14;;;;;;;29.60;18.50;;;;;;;4.58;84.52;101675.65;106201;1257;73560;-64
2024/02/14 07:33:40;;;;;;;27.90;19.10;;;;;;;4.64;84.48;101675.81;104887;1261;139051;-64
2024/02/14 07:36:09;;;;;;;31.00;20.50;;;;;;;4.70;84.45;101672.92;105017;1257;62399;-63
2024/02/14 07:38:35;;;;;;;37.40;22.70;;;;;;;4.81;84.43;101673.23;104994;1256;138494;-63
2024/02/14 07:41:02;;;;;;;37.80;23.10;;;;;;;4.92;84.43;101671.67;105049;1259;65612;-64
2024/02/14 07:43:29;;;;;;;32.40;22.50;;;;;;;5.00;84.21;101672.17;104957;1256;72946;-64
2024/02/14 07:45:55;;;;;;;37.60;23.40;;;;;;;5.07;84.24;101672.10;104765;1259;138504;-64
2024/02/14 07:48:22;;;;;;;37.80;23.70;;;;;;;5.15;84.08;101675.71;104927;1256;61997;-64
2024/02/14 07:50:49;;;;;;;38.50;22.20;;;;;;;5.18;83.84;101678.83;104943;1259;138474;-64
2024/02/14 07:53:15;;;;;;;37.50;22.60;;;;;;;5.20;83.76;101678.98;104941;1259;65295;-64
2024/02/14 07:55:42;;;;;;;38.20;22.70;;;;;;;5.20;83.64;101680.36;104971;1259;73777;-64
2024/02/14 07:58:09;;;;;;;35.00;21.50;;;;;;;5.14;83.29;101676.88;104724;1257;139308;-65
2024/02/14 08:00:36;;;;;;;34.60;21.70;;;;;;;5.09;83.14;101675.49;104821;1257;62073;-65
2024/02/14 08:03:04;;;;;;;31.50;22.10;;;;;;;5.06;83.26;101676.21;104724;1259;139180;-66
2024/02/14 08:05:31;;;;;;;31.60;20.30;;;;;;;5.06;83.29;101672.02;104976;1259;66070;-65
2024/02/14 08:07:57;;;;;;;30.90;20.00;;;;;;;5.07;83.23;101670.36;104910;1257;73196;-65
2024/02/14 08:10:24;;;;;;;33.50;19.20;;;;;;;5.08;83.18;101671.09;104940;1257;139311;-65
2024/02/14 08:12:51;;;;;;;30.50;19.60;;;;;;;5.10;83.26;101668.78;104997;1257;61243;-65
2024/02/14 08:15:17;;;;;;;29.00;18.80;;;;;;;5.15;83.36;101669.45;106052;1255;139224;-65
2024/02/14 08:17:45;;;;;;;30.90;19.40;;;;;;;5.20;83.28;101675.83;104945;1259;67262;-65
2024/02/14 08:20:12;;;;;;;33.90;18.50;;;;;;;5.25;83.43;101678.41;104972;1262;70859;-65
2024/02/14 08:22:39;;;;;;;28.30;17.40;;;;;;;5.30;83.26;101676.41;104880;1257;138357;-65
2024/02/14 08:25:07;;;;;;;28.00;16.20;;;;;;;5.34;83.20;101672.67;104969;1259;62072;-65
2024/02/14 08:27:33;;;;;;;24.30;16.00;;;;;;;5.38;83.11;101675.36;106549;1259;139511;-65
2024/02/14 08:30:00;;;;;;;24.60;15.90;;;;;;;5.45;83.20;101671.95;104909;1262;65270;-65
2024/02/14 08:32:27;;;;;;;28.00;16.80;;;;;;;5.53;83.10;101669.80;104688;1262;138897;-65
2024/02/14 08:34:54;;;;;;;30.60;17.30;;;;;;;5.59;83.14;101669.31;104979;1257;62063;-65
2024/02/14 08:37:20;;;;;;;32.00;18.00;;;;;;;5.66;82.98;101673.73;105041;1259;62072;-65
2024/02/14 08:39:47;;;;;;;22.60;14.30;;;;;;;5.74;82.98;101667.42;104709;1256;139124;-66
2024/02/14 08:42:14;;;;;;;22.10;13.00;;;;;;;5.83;83.03;101672.48;104967;1259;66763;-65
2024/02/14 08:44:40;;;;;;;17.90;12.10;;;;;;;5.96;83.08;101672.23;104758;1262;139441;-65
2024/02/14 08:47:07;;;;;;;21.00;12.70;;;;;;;6.11;83.02;101667.88;105086;1257;62170;-65
2024/02/14 08:49:34;;;;;;;20.00;11.80;;;;;;;6.25;82.92;101665.70;105041;1257;62050;-65
2024/02/14 08:52:01;;;;;;;19.60;12.20;;;;;;;6.38;82.67;101667.67;105610;1256;138420;-65
2024/02/14 08:54:28;;;;;;;17.70;11.70;;;;;;;6.48;82.36;101668.39;104999;1260;67506;-66
2024/02/14 08:56:58;;;;;;;16.80;11.50;;;;;;;6.55;82.12;101671.73;105584;1259;138552;-64
2024/02/14 08:59:25;;;;;;;17.80;11.60;;;;;;;6.65;82.00;101668.11;109103;1255;59851;-65
2024/02/14 09:01:51;;;;;;;19.90;10.30;;;;;;;6.76;81.94;101668.20;108137;1259;62191;-65
2024/02/14 09:04:18;;;;;;;18.70;11.50;;;;;;;6.87;81.66;101667.55;104899;1257;139190;-66
2024/02/14 09:06:45;;;;;;;18.20;11.40;;;;;;;6.98;81.67;101671.48;104926;1260;67318;-65
2024/02/14 09:09:14;;;;;;;17.40;10.60;;;;;;;7.11;81.46;101672.73;104911;1257;138660;-65
2024/02/14 09:11:50;;;;;;;17.50;11.20;;;;;;;7.23;81.28;101674.75;102213;1289;601454;-66
2024/02/14 09:14:17;;;;;;;17.50;9.70;;;;;;;7.31;81.00;101677.27;104592;1269;59270;-58
2024/02/14 09:16:45;;;;;;;18.80;10.40;;;;;;;7.37;80.72;101675.50;104079;1269;136736;-59
2024/02/14 09:19:13;;;;;;;17.60;9.80;;;;;;;7.40;80.57;101676.68;104562;1269;71104;-58
2024/02/14 09:21:40;;;;;;;20.20;10.30;;;;;;;7.44;80.43;101676.91;104038;1270;137703;-65
2024/02/14 09:24:07;;;;;;;20.90;12.00;;;;;;;7.47;80.19;101675.67;104362;1270;73353;-65
2024/02/14 09:26:33;;;;;;;17.00;10.30;;;;;;;7.52;80.12;101675.24;104149;1269;225157;-64
2024/02/14 09:29:00;;;;;;;17.30;9.00;;;;;;;7.59;80.06;101670.70;104460;1266;60781;-66
2024/02/14 09:31:27;;;;;;;23.00;9.60;;;;;;;7.63;79.83;101669.82;104300;1268;72238;-65
2024/02/14 09:33:56;;;;;;;14.30;8.40;;;;;;;7.66;79.61;101669.98;104189;1267;137489;-65
2024/02/14 09:36:26;;;;;;;17.00;7.60;;;;;;;7.71;79.46;101668.34;104345;1267;70512;-64
2024/02/14 09:38:53;;;;;;;12.40;7.30;;;;;;;7.74;79.14;101666.06;104268;1266;138552;-65
2024/02/14 09:41:30;;;;;;;14.80;8.40;;;;;;;7.80;79.03;101665.83;106497;1266;59753;-65
2024/02/14 09:43:56;;;;;;;16.70;7.80;;;;;;;7.89;78.99;101669.45;106595;1265;70945;-65
2024/02/14 09:46:26;;;;;;;15.50;8.60;;;;;;;7.98;78.79;101669.17;104223;1266;137005;-65
2024/02/14 09:48:53;;;;;;;15.00;8.70;;;;;;;8.05;78.55;101669.90;104397;1267;71111;-65
2024/02/14 09:51:20;;;;;;;17.30;8.90;;;;;;;8.15;78.48;101667.04;105286;1266;137661;-65
2024/02/14 09:53:47;;;;;;;11.40;7.80;;;;;;;8.18;78.11;101668.23;104268;1267;59772;-66
2024/02/14 09:56:16;;;;;;;15.90;8.50;;;;;;;8.22;78.04;101672.13;104327;1267;73593;-66
2024/02/14 09:58:43;;;;;;;12.50;8.20;;;;;;;8.29;77.94;101666.16;104354;1265;137238;-65
2024/02/14 10:01:10;;;;;;;11.50;7.90;;;;;;;8.33;77.70;101668.67;104327;1267;70866;-64
2024/02/14 10:03:36;;;;;;;17.60;8.40;;;;;;;8.39;77.41;101668.58;104237;1266;137128;-65
2024/02/14 10:06:04;;;;;;;13.20;8.30;;;;;;;8.44;77.29;101665.70;104802;1260;60347;-65
2024/02/14 10:08:30;;;;;;;13.10;7.90;;;;;;;8.50;77.04;101659.69;104690;1263;137368;-63
2024/02/14 10:11:04;;;;;;;10.60;7.20;;;;;;;8.50;76.64;101659.55;104924;1260;66803;-64
2024/02/14 10:13:31;;;;;;;12.50;8.10;;;;;;;8.45;76.35;101662.58;104817;1262;73717;-65
2024/02/14 10:15:58;;;;;;;12.50;7.80;;;;;;;8.42;76.32;101668.05;104757;1259;137625;-65
2024/02/14 10:18:26;;;;;;;14.60;8.00;;;;;;;8.40;76.13;101668.81;104805;1259;61037;-65
2024/02/14 10:20:56;;;;;;;15.30;8.20;;;;;;;8.37;76.00;101666.56;104764;1260;137401;-65
2024/02/14 10:23:23;;;;;;;17.90;8.40;;;;;;;8.35;75.92;101669.25;105113;1262;67601;-65
2024/02/14 10:25:51;;;;;;;16.10;9.40;;;;;;;8.38;76.09;101668.18;104926;1261;71411;-65
2024/02/14 10:28:19;;;;;;;11.20;7.70;;;;;;;8.43;76.13;101668.61;107135;1259;137451;-65
2024/02/14 10:30:46;;;;;;;14.50;8.50;;;;;;;8.45;76.03;101662.59;104842;1262;59959;-65
2024/02/14 10:33:12;;;;;;;14.90;8.90;;;;;;;8.47;76.05;101661.48;104904;1260;137052;-65
2024/02/14 10:35:41;;;;;;;17.30;12.00;;;;;;;8.49;76.20;101659.66;104837;1260;66780;-65
2024/02/14 10:38:09;;;;;;;14.30;9.60;;;;;;;8.52;76.11;101662.06;104761;1260;70905;-65
2024/02/14 10:40:38;;;;;;;13.00;9.30;;;;;;;8.50;75.97;101663.03;108853;1258;137747;-65
2024/02/14 10:43:09;;;;;;;12.30;8.80;;;;;;;8.46;75.74;101665.09;108967;1258;59331;-65
2024/02/14 10:45:36;;;;;;;13.90;9.10;;;;;;;8.42;75.65;101660.85;108823;1258;137320;-66
2024/02/14 10:48:07;;;;;;;14.20;8.80;;;;;;;8.35;75.48;101658.77;108976;1259;67148;-66
2024/02/14 10:50:35;;;;;;;14.10;9.40;;;;;;;8.30;75.39;101663.43;108706;1260;137805;-65
2024/02/14 10:53:04;;;;;;;16.70;11.10;;;;;;;8.23;75.27;101661.34;108973;1259;57445;-64
2024/02/14 10:55:31;;;;;;;16.90;10.70;;;;;;;8.17;75.24;101661.21;108885;1259;60342;-64
2024/02/14 10:57:57;;;;;;;17.40;11.70;;;;;;;8.13;75.32;101663.11;107532;1259;137298;-66
2024/02/14 11:00:24;;;;;;;21.10;11.10;;;;;;;8.13;75.38;101659.48;104623;1267;65661;-64
2024/02/14 11:02:51;;;;;;;17.50;10.00;;;;;;;8.13;75.40;101658.23;104573;1261;138261;-65
2024/02/14 11:05:19;;;;;;;16.90;9.60;;;;;;;8.12;75.23;101653.48;105495;1259;59852;-65
2024/02/14 11:07:46;;;;;;;14.30;8.80;;;;;;;8.12;75.29;101653.45;107405;1259;59622;-65
2024/02/14 11:10:14;;;;;;;11.90;9.10;;;;;;;8.12;75.26;101652.40;106248;1260;137456;-64